sensor_id;sensor_type;location;lat;lon;timestamp;temperature;humidity
69747;DHT22;57018;50.278;19.134;2022-08-19T00:00:25;23.10;78.30
69747;DHT22;57018;50.278;19.134;2022-08-19T00:02:53;23.10;78.20
69747;DHT22;57018;50.278;19.134;2022-08-19T00:05:21;23.00;78.50
69747;DHT22;57018;50.278;19.134;2022-08-19T00:07:48;23.00;78.50
69747;DHT22;57018;50.278;19.134;2022-08-19T00:10:17;23.00;79.40
69747;DHT22;57018;50.278;19.134;2022-08-19T00:12:44;22.90;79.00
69747;DHT22;57018;50.278;19.134;2022-08-19T00:15:12;22.90;79.30
69747;DHT22;57018;50.278;19.134;2022-08-19T00:17:42;22.70;79.60
69747;DHT22;57018;50.278;19.134;2022-08-19T00:20:10;22.70;79.40
69747;DHT22;57018;50.278;19.134;2022-08-19T00:22:38;22.70;80.00
69747;DHT22;57018;50.278;19.134;2022-08-19T00:25:07;22.60;80.30
69747;DHT22;57018;50.278;19.134;2022-08-19T00:27:33;22.70;80.40
69747;DHT22;57018;50.278;19.134;2022-08-19T00:30:00;22.60;80.30
69747;DHT22;57018;50.278;19.134;2022-08-19T00:32:29;22.60;80.20
69747;DHT22;57018;50.278;19.134;2022-08-19T00:34:56;22.60;80.60
69747;DHT22;57018;50.278;19.134;2022-08-19T00:37:24;22.60;80.60
69747;DHT22;57018;50.278;19.134;2022-08-19T00:39:51;22.60;80.60
69747;DHT22;57018;50.278;19.134;2022-08-19T00:42:20;22.60;80.50
69747;DHT22;57018;50.278;19.134;2022-08-19T00:44:47;22.50;80.70
69747;DHT22;57018;50.278;19.134;2022-08-19T00:47:15;22.60;81.20
69747;DHT22;57018;50.278;19.134;2022-08-19T00:52:14;22.40;81.30
69747;DHT22;57018;50.278;19.134;2022-08-19T00:54:42;22.50;81.50
69747;DHT22;57018;50.278;19.134;2022-08-19T00:57:11;22.30;81.80
69747;DHT22;57018;50.278;19.134;2022-08-19T00:59:40;22.40;81.70
69747;DHT22;57018;50.278;19.134;2022-08-19T01:02:07;22.30;82.00
69747;DHT22;57018;50.278;19.134;2022-08-19T01:04:33;22.30;82.40
69747;DHT22;57018;50.278;19.134;2022-08-19T01:06:59;22.30;82.50
69747;DHT22;57018;50.278;19.134;2022-08-19T01:09:27;22.20;82.60
69747;DHT22;57018;50.278;19.134;2022-08-19T01:11:53;22.30;82.90
69747;DHT22;57018;50.278;19.134;2022-08-19T01:14:19;22.20;82.50
69747;DHT22;57018;50.278;19.134;2022-08-19T01:16:46;22.30;82.50
69747;DHT22;57018;50.278;19.134;2022-08-19T01:19:28;22.30;82.50
69747;DHT22;57018;50.278;19.134;2022-08-19T01:24:44;22.20;82.50
69747;DHT22;57018;50.278;19.134;2022-08-19T01:27:10;22.10;82.90
69747;DHT22;57018;50.278;19.134;2022-08-19T01:29:40;22.10;82.70
69747;DHT22;57018;50.278;19.134;2022-08-19T01:32:07;22.10;83.00
69747;DHT22;57018;50.278;19.134;2022-08-19T01:34:34;22.00;83.70
69747;DHT22;57018;50.278;19.134;2022-08-19T01:37:05;22.00;83.60
69747;DHT22;57018;50.278;19.134;2022-08-19T01:39:30;22.10;83.80
69747;DHT22;57018;50.278;19.134;2022-08-19T01:41:56;22.00;84.30
69747;DHT22;57018;50.278;19.134;2022-08-19T01:44:23;21.90;84.20
69747;DHT22;57018;50.278;19.134;2022-08-19T01:46:51;21.90;83.70
69747;DHT22;57018;50.278;19.134;2022-08-19T01:49:20;22.00;84.30
69747;DHT22;57018;50.278;19.134;2022-08-19T01:51:48;21.90;84.20
69747;DHT22;57018;50.278;19.134;2022-08-19T01:54:17;21.80;84.70
69747;DHT22;57018;50.278;19.134;2022-08-19T01:56:43;21.90;84.60
69747;DHT22;57018;50.278;19.134;2022-08-19T01:59:16;21.80;84.90
69747;DHT22;57018;50.278;19.134;2022-08-19T02:01:42;21.80;85.00
69747;DHT22;57018;50.278;19.134;2022-08-19T02:04:09;21.70;85.50
69747;DHT22;57018;50.278;19.134;2022-08-19T02:06:35;21.70;85.30
69747;DHT22;57018;50.278;19.134;2022-08-19T02:09:02;21.70;85.10
69747;DHT22;57018;50.278;19.134;2022-08-19T02:11:32;21.70;85.60
69747;DHT22;57018;50.278;19.134;2022-08-19T02:14:01;21.60;85.60
69747;DHT22;57018;50.278;19.134;2022-08-19T02:16:28;21.70;85.40
69747;DHT22;57018;50.278;19.134;2022-08-19T02:18:55;21.60;85.50
69747;DHT22;57018;50.278;19.134;2022-08-19T02:21:22;21.60;86.00
69747;DHT22;57018;50.278;19.134;2022-08-19T02:23:49;21.60;85.90
69747;DHT22;57018;50.278;19.134;2022-08-19T02:26:16;21.50;85.90
69747;DHT22;57018;50.278;19.134;2022-08-19T02:28:42;21.50;86.00
69747;DHT22;57018;50.278;19.134;2022-08-19T02:31:11;21.60;85.70
69747;DHT22;57018;50.278;19.134;2022-08-19T02:33:38;21.50;85.90
69747;DHT22;57018;50.278;19.134;2022-08-19T02:36:06;21.60;86.20
69747;DHT22;57018;50.278;19.134;2022-08-19T02:38:33;21.60;86.30
69747;DHT22;57018;50.278;19.134;2022-08-19T02:41:03;21.50;86.40
69747;DHT22;57018;50.278;19.134;2022-08-19T02:43:32;21.40;86.20
69747;DHT22;57018;50.278;19.134;2022-08-19T02:46:01;21.50;86.30
69747;DHT22;57018;50.278;19.134;2022-08-19T02:48:27;21.40;86.20
69747;DHT22;57018;50.278;19.134;2022-08-19T02:50:53;21.40;87.00
69747;DHT22;57018;50.278;19.134;2022-08-19T02:53:26;21.40;86.80
69747;DHT22;57018;50.278;19.134;2022-08-19T02:55:52;21.30;86.60
69747;DHT22;57018;50.278;19.134;2022-08-19T02:58:19;21.30;86.50
69747;DHT22;57018;50.278;19.134;2022-08-19T03:00:50;21.40;86.50
69747;DHT22;57018;50.278;19.134;2022-08-19T03:03:17;21.30;86.60
69747;DHT22;57018;50.278;19.134;2022-08-19T03:05:43;21.40;86.90
69747;DHT22;57018;50.278;19.134;2022-08-19T03:08:11;21.40;86.30
69747;DHT22;57018;50.278;19.134;2022-08-19T03:10:46;21.40;86.50
69747;DHT22;57018;50.278;19.134;2022-08-19T03:13:16;21.30;86.40
69747;DHT22;57018;50.278;19.134;2022-08-19T03:15:46;21.30;86.60
69747;DHT22;57018;50.278;19.134;2022-08-19T03:18:12;21.30;87.00
69747;DHT22;57018;50.278;19.134;2022-08-19T03:20:47;21.20;86.80
69747;DHT22;57018;50.278;19.134;2022-08-19T03:23:14;21.20;86.90
69747;DHT22;57018;50.278;19.134;2022-08-19T03:25:43;21.30;87.10
69747;DHT22;57018;50.278;19.134;2022-08-19T03:28:11;21.30;87.10
69747;DHT22;57018;50.278;19.134;2022-08-19T03:30:38;21.20;87.10
69747;DHT22;57018;50.278;19.134;2022-08-19T03:33:08;21.30;87.50
69747;DHT22;57018;50.278;19.134;2022-08-19T03:35:35;21.20;87.40
69747;DHT22;57018;50.278;19.134;2022-08-19T03:38:05;21.20;87.00
69747;DHT22;57018;50.278;19.134;2022-08-19T03:40:36;21.20;87.10
69747;DHT22;57018;50.278;19.134;2022-08-19T03:43:01;21.30;86.60
69747;DHT22;57018;50.278;19.134;2022-08-19T03:45:27;21.30;86.90
69747;DHT22;57018;50.278;19.134;2022-08-19T03:47:53;21.30;86.80
69747;DHT22;57018;50.278;19.134;2022-08-19T03:50:19;21.30;86.80
69747;DHT22;57018;50.278;19.134;2022-08-19T03:52:52;21.30;86.60
69747;DHT22;57018;50.278;19.134;2022-08-19T03:55:19;21.40;86.40
69747;DHT22;57018;50.278;19.134;2022-08-19T03:57:45;21.50;86.50
69747;DHT22;57018;50.278;19.134;2022-08-19T04:00:14;21.60;86.00
69747;DHT22;57018;50.278;19.134;2022-08-19T04:02:41;21.60;86.10
69747;DHT22;57018;50.278;19.134;2022-08-19T04:05:09;21.60;85.80
69747;DHT22;57018;50.278;19.134;2022-08-19T04:07:35;21.60;85.60
69747;DHT22;57018;50.278;19.134;2022-08-19T04:10:01;21.70;85.50
69747;DHT22;57018;50.278;19.134;2022-08-19T04:12:28;21.70;85.30
69747;DHT22;57018;50.278;19.134;2022-08-19T04:14:54;21.70;85.00
69747;DHT22;57018;50.278;19.134;2022-08-19T04:17:21;21.70;84.80
69747;DHT22;57018;50.278;19.134;2022-08-19T04:19:48;21.80;85.00
69747;DHT22;57018;50.278;19.134;2022-08-19T04:22:14;21.90;84.80
69747;DHT22;57018;50.278;19.134;2022-08-19T04:24:43;21.90;84.80
69747;DHT22;57018;50.278;19.134;2022-08-19T04:27:09;22.00;84.80
69747;DHT22;57018;50.278;19.134;2022-08-19T04:29:35;22.10;84.80
69747;DHT22;57018;50.278;19.134;2022-08-19T04:32:03;22.20;84.50
69747;DHT22;57018;50.278;19.134;2022-08-19T04:34:31;22.30;84.10
69747;DHT22;57018;50.278;19.134;2022-08-19T04:36:58;22.50;83.80
69747;DHT22;57018;50.278;19.134;2022-08-19T04:39:27;22.60;83.50
69747;DHT22;57018;50.278;19.134;2022-08-19T04:41:55;22.90;82.80
69747;DHT22;57018;50.278;19.134;2022-08-19T04:44:39;23.00;81.90
69747;DHT22;57018;50.278;19.134;2022-08-19T04:47:07;23.20;80.90
69747;DHT22;57018;50.278;19.134;2022-08-19T04:49:34;23.40;80.50
69747;DHT22;57018;50.278;19.134;2022-08-19T04:52:00;23.70;77.60
69747;DHT22;57018;50.278;19.134;2022-08-19T04:54:26;24.00;77.00
69747;DHT22;57018;50.278;19.134;2022-08-19T04:56:53;24.40;76.10
69747;DHT22;57018;50.278;19.134;2022-08-19T04:59:20;24.70;74.90
69747;DHT22;57018;50.278;19.134;2022-08-19T05:01:47;24.90;74.40
69747;DHT22;57018;50.278;19.134;2022-08-19T05:04:18;25.20;73.20
69747;DHT22;57018;50.278;19.134;2022-08-19T05:06:50;25.40;72.30
69747;DHT22;57018;50.278;19.134;2022-08-19T05:09:14;25.60;71.80
69747;DHT22;57018;50.278;19.134;2022-08-19T05:11:40;25.70;71.10
69747;DHT22;57018;50.278;19.134;2022-08-19T05:14:07;25.80;70.90
69747;DHT22;57018;50.278;19.134;2022-08-19T05:16:34;26.00;70.20
69747;DHT22;57018;50.278;19.134;2022-08-19T05:19:01;26.20;69.70
69747;DHT22;57018;50.278;19.134;2022-08-19T05:21:45;26.40;66.70
69747;DHT22;57018;50.278;19.134;2022-08-19T05:24:30;26.70;66.30
69747;DHT22;57018;50.278;19.134;2022-08-19T05:26:58;26.90;65.20
69747;DHT22;57018;50.278;19.134;2022-08-19T05:29:26;27.10;65.10
69747;DHT22;57018;50.278;19.134;2022-08-19T05:31:54;27.10;64.60
69747;DHT22;57018;50.278;19.134;2022-08-19T05:34:22;27.20;64.40
69747;DHT22;57018;50.278;19.134;2022-08-19T05:36:56;27.40;63.60
69747;DHT22;57018;50.278;19.134;2022-08-19T05:39:21;27.50;63.60
69747;DHT22;57018;50.278;19.134;2022-08-19T05:41:50;27.70;62.90
69747;DHT22;57018;50.278;19.134;2022-08-19T05:44:18;27.80;62.20
69747;DHT22;57018;50.278;19.134;2022-08-19T05:46:45;28.00;61.30
69747;DHT22;57018;50.278;19.134;2022-08-19T05:49:14;28.10;61.20
69747;DHT22;57018;50.278;19.134;2022-08-19T05:51:42;28.30;60.70
69747;DHT22;57018;50.278;19.134;2022-08-19T05:54:09;28.60;60.40
69747;DHT22;57018;50.278;19.134;2022-08-19T05:56:36;28.60;59.70
69747;DHT22;57018;50.278;19.134;2022-08-19T05:59:05;28.80;59.60
69747;DHT22;57018;50.278;19.134;2022-08-19T06:01:38;28.90;59.60
69747;DHT22;57018;50.278;19.134;2022-08-19T06:04:06;28.90;59.20
69747;DHT22;57018;50.278;19.134;2022-08-19T06:06:33;29.10;58.30
69747;DHT22;57018;50.278;19.134;2022-08-19T06:09:02;29.20;58.20
69747;DHT22;57018;50.278;19.134;2022-08-19T06:11:50;29.30;58.00
69747;DHT22;57018;50.278;19.134;2022-08-19T06:14:19;29.50;57.70
69747;DHT22;57018;50.278;19.134;2022-08-19T06:16:47;29.60;57.30
69747;DHT22;57018;50.278;19.134;2022-08-19T06:19:15;29.90;56.60
69747;DHT22;57018;50.278;19.134;2022-08-19T06:21:44;30.00;56.40
69747;DHT22;57018;50.278;19.134;2022-08-19T06:24:13;30.20;55.90
69747;DHT22;57018;50.278;19.134;2022-08-19T06:26:41;30.40;55.00
69747;DHT22;57018;50.278;19.134;2022-08-19T06:29:10;30.50;54.90
69747;DHT22;57018;50.278;19.134;2022-08-19T06:31:40;30.50;54.80
69747;DHT22;57018;50.278;19.134;2022-08-19T06:34:05;30.40;54.60
69747;DHT22;57018;50.278;19.134;2022-08-19T06:36:42;30.40;54.90
69747;DHT22;57018;50.278;19.134;2022-08-19T06:39:24;30.40;54.40
69747;DHT22;57018;50.278;19.134;2022-08-19T06:41:54;30.40;54.40
69747;DHT22;57018;50.278;19.134;2022-08-19T06:44:21;30.40;54.70
69747;DHT22;57018;50.278;19.134;2022-08-19T06:46:48;30.40;55.00
69747;DHT22;57018;50.278;19.134;2022-08-19T06:49:16;30.50;54.90
69747;DHT22;57018;50.278;19.134;2022-08-19T06:51:45;30.60;54.70
69747;DHT22;57018;50.278;19.134;2022-08-19T06:54:14;30.60;54.30
69747;DHT22;57018;50.278;19.134;2022-08-19T06:56:40;30.80;54.00
69747;DHT22;57018;50.278;19.134;2022-08-19T06:59:10;31.00;54.00
69747;DHT22;57018;50.278;19.134;2022-08-19T07:01:45;31.00;53.70
69747;DHT22;57018;50.278;19.134;2022-08-19T07:04:15;31.20;53.30
69747;DHT22;57018;50.278;19.134;2022-08-19T07:06:41;31.40;53.50
69747;DHT22;57018;50.278;19.134;2022-08-19T07:09:09;31.50;53.00
69747;DHT22;57018;50.278;19.134;2022-08-19T07:11:35;31.70;52.80
69747;DHT22;57018;50.278;19.134;2022-08-19T07:14:03;31.90;51.70
69747;DHT22;57018;50.278;19.134;2022-08-19T07:16:31;32.10;51.40
69747;DHT22;57018;50.278;19.134;2022-08-19T07:18:57;32.30;50.70
69747;DHT22;57018;50.278;19.134;2022-08-19T07:21:26;32.40;50.00
69747;DHT22;57018;50.278;19.134;2022-08-19T07:23:54;32.60;49.60
69747;DHT22;57018;50.278;19.134;2022-08-19T07:26:31;32.70;49.00
69747;DHT22;57018;50.278;19.134;2022-08-19T07:28:50;32.60;49.00
69747;DHT22;57018;50.278;19.134;2022-08-19T07:31:20;32.60;49.00
69747;DHT22;57018;50.278;19.134;2022-08-19T07:33:48;32.40;48.80
69747;DHT22;57018;50.278;19.134;2022-08-19T07:36:19;32.40;49.10
69747;DHT22;57018;50.278;19.134;2022-08-19T07:38:48;32.50;49.40
69747;DHT22;57018;50.278;19.134;2022-08-19T07:41:18;32.50;49.20
69747;DHT22;57018;50.278;19.134;2022-08-19T07:43:44;32.40;49.20
69747;DHT22;57018;50.278;19.134;2022-08-19T07:46:12;32.50;48.80
69747;DHT22;57018;50.278;19.134;2022-08-19T07:48:41;32.50;48.50
69747;DHT22;57018;50.278;19.134;2022-08-19T07:51:10;32.40;48.40
69747;DHT22;57018;50.278;19.134;2022-08-19T07:53:37;32.40;48.30
69747;DHT22;57018;50.278;19.134;2022-08-19T07:56:04;32.50;48.30
69747;DHT22;57018;50.278;19.134;2022-08-19T07:58:34;32.40;47.40
69747;DHT22;57018;50.278;19.134;2022-08-19T08:01:02;32.50;47.30
69747;DHT22;57018;50.278;19.134;2022-08-19T08:03:29;32.60;47.00
69747;DHT22;57018;50.278;19.134;2022-08-19T08:06:15;32.70;47.00
69747;DHT22;57018;50.278;19.134;2022-08-19T08:09:00;32.90;46.50
69747;DHT22;57018;50.278;19.134;2022-08-19T08:11:56;33.10;45.70
69747;DHT22;57018;50.278;19.134;2022-08-19T08:14:29;33.10;45.90
69747;DHT22;57018;50.278;19.134;2022-08-19T08:16:56;33.10;45.20
69747;DHT22;57018;50.278;19.134;2022-08-19T08:19:24;33.20;45.30
69747;DHT22;57018;50.278;19.134;2022-08-19T08:21:51;33.30;44.70
69747;DHT22;57018;50.278;19.134;2022-08-19T08:24:18;33.30;44.70
69747;DHT22;57018;50.278;19.134;2022-08-19T08:26:44;33.40;44.90
69747;DHT22;57018;50.278;19.134;2022-08-19T08:29:11;33.60;44.90
69747;DHT22;57018;50.278;19.134;2022-08-19T08:31:41;33.70;44.70
69747;DHT22;57018;50.278;19.134;2022-08-19T08:34:08;33.80;44.20
69747;DHT22;57018;50.278;19.134;2022-08-19T08:36:42;33.90;44.10
69747;DHT22;57018;50.278;19.134;2022-08-19T08:39:06;34.00;43.70
69747;DHT22;57018;50.278;19.134;2022-08-19T08:41:40;34.10;43.90
69747;DHT22;57018;50.278;19.134;2022-08-19T08:44:06;34.10;43.40
69747;DHT22;57018;50.278;19.134;2022-08-19T08:46:40;34.10;42.60
69747;DHT22;57018;50.278;19.134;2022-08-19T08:49:16;34.10;43.10
69747;DHT22;57018;50.278;19.134;2022-08-19T08:51:42;34.20;42.80
69747;DHT22;57018;50.278;19.134;2022-08-19T08:54:12;34.30;42.90
69747;DHT22;57018;50.278;19.134;2022-08-19T08:56:43;34.40;42.70
69747;DHT22;57018;50.278;19.134;2022-08-19T09:01:52;34.60;41.80
69747;DHT22;57018;50.278;19.134;2022-08-19T09:04:18;34.70;42.00
69747;DHT22;57018;50.278;19.134;2022-08-19T09:09:42;34.60;40.60
69747;DHT22;57018;50.278;19.134;2022-08-19T09:12:25;34.50;41.60
69747;DHT22;57018;50.278;19.134;2022-08-19T09:14:53;34.50;41.70
69747;DHT22;57018;50.278;19.134;2022-08-19T09:17:23;34.40;41.10
69747;DHT22;57018;50.278;19.134;2022-08-19T09:19:54;34.50;41.00
69747;DHT22;57018;50.278;19.134;2022-08-19T09:22:21;34.60;40.10
69747;DHT22;57018;50.278;19.134;2022-08-19T09:24:49;34.60;39.70
69747;DHT22;57018;50.278;19.134;2022-08-19T09:27:18;34.80;39.60
69747;DHT22;57018;50.278;19.134;2022-08-19T09:29:46;35.00;39.30
69747;DHT22;57018;50.278;19.134;2022-08-19T09:32:15;35.00;38.70
69747;DHT22;57018;50.278;19.134;2022-08-19T09:34:42;35.00;38.00
69747;DHT22;57018;50.278;19.134;2022-08-19T09:37:09;34.70;38.10
69747;DHT22;57018;50.278;19.134;2022-08-19T09:39:35;34.40;39.00
69747;DHT22;57018;50.278;19.134;2022-08-19T09:42:01;34.10;38.30
69747;DHT22;57018;50.278;19.134;2022-08-19T09:44:29;34.10;39.10
69747;DHT22;57018;50.278;19.134;2022-08-19T09:46:55;34.10;39.80
69747;DHT22;57018;50.278;19.134;2022-08-19T09:49:22;34.40;39.60
69747;DHT22;57018;50.278;19.134;2022-08-19T09:51:52;34.70;38.50
69747;DHT22;57018;50.278;19.134;2022-08-19T09:54:21;35.00;37.50
69747;DHT22;57018;50.278;19.134;2022-08-19T09:56:48;35.60;37.70
69747;DHT22;57018;50.278;19.134;2022-08-19T09:59:14;36.00;37.30
69747;DHT22;57018;50.278;19.134;2022-08-19T10:01:41;36.30;36.50
69747;DHT22;57018;50.278;19.134;2022-08-19T10:04:07;36.60;35.70
69747;DHT22;57018;50.278;19.134;2022-08-19T10:06:38;36.90;35.60
69747;DHT22;57018;50.278;19.134;2022-08-19T10:09:06;37.10;35.40
69747;DHT22;57018;50.278;19.134;2022-08-19T10:11:34;37.10;34.70
69747;DHT22;57018;50.278;19.134;2022-08-19T10:14:02;37.30;35.60
69747;DHT22;57018;50.278;19.134;2022-08-19T10:16:28;37.30;34.90
69747;DHT22;57018;50.278;19.134;2022-08-19T10:18:54;37.40;34.80
69747;DHT22;57018;50.278;19.134;2022-08-19T10:21:26;37.10;35.10
69747;DHT22;57018;50.278;19.134;2022-08-19T10:23:52;37.00;35.40
69747;DHT22;57018;50.278;19.134;2022-08-19T10:26:26;37.00;36.00
69747;DHT22;57018;50.278;19.134;2022-08-19T10:28:49;36.70;36.10
69747;DHT22;57018;50.278;19.134;2022-08-19T10:31:23;36.60;36.00
69747;DHT22;57018;50.278;19.134;2022-08-19T10:33:46;36.40;36.50
69747;DHT22;57018;50.278;19.134;2022-08-19T10:36:16;36.10;36.60
69747;DHT22;57018;50.278;19.134;2022-08-19T10:38:44;35.90;37.00
69747;DHT22;57018;50.278;19.134;2022-08-19T10:41:20;35.60;37.20
69747;DHT22;57018;50.278;19.134;2022-08-19T10:43:53;35.30;37.70
69747;DHT22;57018;50.278;19.134;2022-08-19T10:46:22;35.00;38.20
69747;DHT22;57018;50.278;19.134;2022-08-19T10:48:49;34.80;38.20
69747;DHT22;57018;50.278;19.134;2022-08-19T10:51:15;34.70;37.70
69747;DHT22;57018;50.278;19.134;2022-08-19T10:54:00;34.40;38.70
69747;DHT22;57018;50.278;19.134;2022-08-19T10:56:28;34.30;38.90
69747;DHT22;57018;50.278;19.134;2022-08-19T10:59:13;34.30;39.50
69747;DHT22;57018;50.278;19.134;2022-08-19T11:01:42;34.10;39.20
69747;DHT22;57018;50.278;19.134;2022-08-19T11:04:13;34.00;40.30
69747;DHT22;57018;50.278;19.134;2022-08-19T11:06:40;33.90;40.10
69747;DHT22;57018;50.278;19.134;2022-08-19T11:09:09;33.80;40.00
69747;DHT22;57018;50.278;19.134;2022-08-19T11:11:37;33.90;40.20
69747;DHT22;57018;50.278;19.134;2022-08-19T11:14:09;33.80;40.60
69747;DHT22;57018;50.278;19.134;2022-08-19T11:16:37;33.80;40.60
69747;DHT22;57018;50.278;19.134;2022-08-19T11:19:07;33.90;40.30
69747;DHT22;57018;50.278;19.134;2022-08-19T11:21:40;33.90;40.50
69747;DHT22;57018;50.278;19.134;2022-08-19T11:24:12;33.90;40.10
69747;DHT22;57018;50.278;19.134;2022-08-19T11:26:36;33.90;39.20
69747;DHT22;57018;50.278;19.134;2022-08-19T11:29:03;34.10;39.00
69747;DHT22;57018;50.278;19.134;2022-08-19T11:31:33;34.30;39.00
69747;DHT22;57018;50.278;19.134;2022-08-19T11:34:03;34.40;38.30
69747;DHT22;57018;50.278;19.134;2022-08-19T11:36:31;34.60;37.70
69747;DHT22;57018;50.278;19.134;2022-08-19T11:38:58;34.70;37.20
69747;DHT22;57018;50.278;19.134;2022-08-19T11:41:25;34.90;36.70
69747;DHT22;57018;50.278;19.134;2022-08-19T11:43:53;35.20;36.80
69747;DHT22;57018;50.278;19.134;2022-08-19T11:46:23;35.50;36.20
69747;DHT22;57018;50.278;19.134;2022-08-19T11:48:49;35.70;36.30
69747;DHT22;57018;50.278;19.134;2022-08-19T11:51:21;35.90;35.60
69747;DHT22;57018;50.278;19.134;2022-08-19T11:53:51;36.10;35.70
69747;DHT22;57018;50.278;19.134;2022-08-19T11:56:18;36.20;35.00
69747;DHT22;57018;50.278;19.134;2022-08-19T11:58:44;36.40;35.20
69747;DHT22;57018;50.278;19.134;2022-08-19T12:01:27;36.50;34.80
69747;DHT22;57018;50.278;19.134;2022-08-19T12:03:55;36.50;34.60
69747;DHT22;57018;50.278;19.134;2022-08-19T12:06:28;36.50;34.80
69747;DHT22;57018;50.278;19.134;2022-08-19T12:08:57;36.50;34.60
69747;DHT22;57018;50.278;19.134;2022-08-19T12:11:25;36.30;35.00
69747;DHT22;57018;50.278;19.134;2022-08-19T12:13:52;36.30;34.50
69747;DHT22;57018;50.278;19.134;2022-08-19T12:16:22;36.30;34.80
69747;DHT22;57018;50.278;19.134;2022-08-19T12:18:50;36.40;34.90
69747;DHT22;57018;50.278;19.134;2022-08-19T12:21:19;36.50;35.00
69747;DHT22;57018;50.278;19.134;2022-08-19T12:23:48;36.80;34.80
69747;DHT22;57018;50.278;19.134;2022-08-19T12:26:16;37.00;34.50
69747;DHT22;57018;50.278;19.134;2022-08-19T12:28:42;37.00;34.60
69747;DHT22;57018;50.278;19.134;2022-08-19T12:31:09;37.20;34.20
69747;DHT22;57018;50.278;19.134;2022-08-19T12:33:38;37.40;33.60
69747;DHT22;57018;50.278;19.134;2022-08-19T12:36:08;37.50;33.40
69747;DHT22;57018;50.278;19.134;2022-08-19T12:38:36;37.80;33.30
69747;DHT22;57018;50.278;19.134;2022-08-19T12:41:16;37.90;33.30
69747;DHT22;57018;50.278;19.134;2022-08-19T12:43:44;38.00;33.30
69747;DHT22;57018;50.278;19.134;2022-08-19T12:46:11;37.80;33.10
69747;DHT22;57018;50.278;19.134;2022-08-19T12:48:38;37.70;32.90
69747;DHT22;57018;50.278;19.134;2022-08-19T12:51:09;37.40;33.60
69747;DHT22;57018;50.278;19.134;2022-08-19T12:53:36;37.30;33.70
69747;DHT22;57018;50.278;19.134;2022-08-19T12:56:03;37.10;33.70
69747;DHT22;57018;50.278;19.134;2022-08-19T12:58:30;37.30;33.60
69747;DHT22;57018;50.278;19.134;2022-08-19T13:00:58;37.40;33.10
69747;DHT22;57018;50.278;19.134;2022-08-19T13:03:24;37.60;33.00
69747;DHT22;57018;50.278;19.134;2022-08-19T13:05:52;37.90;32.50
69747;DHT22;57018;50.278;19.134;2022-08-19T13:08:18;38.10;32.20
69747;DHT22;57018;50.278;19.134;2022-08-19T13:10:44;38.30;32.30
69747;DHT22;57018;50.278;19.134;2022-08-19T13:13:11;38.10;31.60
69747;DHT22;57018;50.278;19.134;2022-08-19T13:15:39;37.90;32.10
69747;DHT22;57018;50.278;19.134;2022-08-19T13:18:08;37.50;31.90
69747;DHT22;57018;50.278;19.134;2022-08-19T13:20:35;37.10;32.70
69747;DHT22;57018;50.278;19.134;2022-08-19T13:23:01;36.70;33.30
69747;DHT22;57018;50.278;19.134;2022-08-19T13:25:27;36.20;33.90
69747;DHT22;57018;50.278;19.134;2022-08-19T13:27:56;36.00;34.50
69747;DHT22;57018;50.278;19.134;2022-08-19T13:30:22;35.70;34.80
69747;DHT22;57018;50.278;19.134;2022-08-19T13:33:08;35.40;34.70
69747;DHT22;57018;50.278;19.134;2022-08-19T13:38:14;35.10;35.60
69747;DHT22;57018;50.278;19.134;2022-08-19T13:40:40;35.10;35.80
69747;DHT22;57018;50.278;19.134;2022-08-19T13:43:08;34.90;36.00
69747;DHT22;57018;50.278;19.134;2022-08-19T13:45:35;34.80;36.00
69747;DHT22;57018;50.278;19.134;2022-08-19T13:48:04;34.60;36.50
69747;DHT22;57018;50.278;19.134;2022-08-19T13:50:37;34.50;36.80
69747;DHT22;57018;50.278;19.134;2022-08-19T13:53:02;34.60;37.00
69747;DHT22;57018;50.278;19.134;2022-08-19T13:55:28;34.60;37.00
69747;DHT22;57018;50.278;19.134;2022-08-19T13:57:57;34.70;37.40
69747;DHT22;57018;50.278;19.134;2022-08-19T14:00:26;34.70;37.20
69747;DHT22;57018;50.278;19.134;2022-08-19T14:02:54;34.90;37.40
69747;DHT22;57018;50.278;19.134;2022-08-19T14:05:21;35.10;36.50
69747;DHT22;57018;50.278;19.134;2022-08-19T14:07:47;35.20;36.60
69747;DHT22;57018;50.278;19.134;2022-08-19T14:10:14;35.40;36.80
69747;DHT22;57018;50.278;19.134;2022-08-19T14:12:40;35.40;36.80
69747;DHT22;57018;50.278;19.134;2022-08-19T14:15:08;35.40;36.40
69747;DHT22;57018;50.278;19.134;2022-08-19T14:17:38;35.20;35.40
69747;DHT22;57018;50.278;19.134;2022-08-19T14:20:06;35.40;36.00
69747;DHT22;57018;50.278;19.134;2022-08-19T14:22:39;35.20;36.70
69747;DHT22;57018;50.278;19.134;2022-08-19T14:25:09;35.20;36.60
69747;DHT22;57018;50.278;19.134;2022-08-19T14:27:38;35.20;36.30
69747;DHT22;57018;50.278;19.134;2022-08-19T14:30:08;35.30;36.90
69747;DHT22;57018;50.278;19.134;2022-08-19T14:32:35;35.40;36.60
69747;DHT22;57018;50.278;19.134;2022-08-19T14:35:02;35.30;36.10
69747;DHT22;57018;50.278;19.134;2022-08-19T14:37:28;35.10;36.10
69747;DHT22;57018;50.278;19.134;2022-08-19T14:39:54;35.10;36.70
69747;DHT22;57018;50.278;19.134;2022-08-19T14:42:21;35.00;36.50
69747;DHT22;57018;50.278;19.134;2022-08-19T14:44:47;34.90;36.40
69747;DHT22;57018;50.278;19.134;2022-08-19T14:47:13;34.90;36.50
69747;DHT22;57018;50.278;19.134;2022-08-19T14:49:39;34.70;37.00
69747;DHT22;57018;50.278;19.134;2022-08-19T14:52:06;34.60;37.00
69747;DHT22;57018;50.278;19.134;2022-08-19T14:54:32;34.50;37.90
69747;DHT22;57018;50.278;19.134;2022-08-19T14:56:58;34.40;37.50
69747;DHT22;57018;50.278;19.134;2022-08-19T14:59:25;34.40;37.90
69747;DHT22;57018;50.278;19.134;2022-08-19T15:01:51;34.30;37.90
69747;DHT22;57018;50.278;19.134;2022-08-19T15:04:17;34.20;37.80
69747;DHT22;57018;50.278;19.134;2022-08-19T15:06:43;34.30;38.60
69747;DHT22;57018;50.278;19.134;2022-08-19T15:09:10;34.30;38.10
69747;DHT22;57018;50.278;19.134;2022-08-19T15:11:36;34.10;37.90
69747;DHT22;57018;50.278;19.134;2022-08-19T15:14:04;34.10;37.00
69747;DHT22;57018;50.278;19.134;2022-08-19T15:16:32;34.10;37.70
69747;DHT22;57018;50.278;19.134;2022-08-19T15:18:59;34.10;37.30
69747;DHT22;57018;50.278;19.134;2022-08-19T15:21:26;34.10;37.40
69747;DHT22;57018;50.278;19.134;2022-08-19T15:23:55;34.10;37.10
69747;DHT22;57018;50.278;19.134;2022-08-19T15:26:22;34.10;37.20
69747;DHT22;57018;50.278;19.134;2022-08-19T15:28:50;34.00;37.50
69747;DHT22;57018;50.278;19.134;2022-08-19T15:31:19;34.00;36.60
69747;DHT22;57018;50.278;19.134;2022-08-19T15:33:47;34.10;36.70
69747;DHT22;57018;50.278;19.134;2022-08-19T15:36:14;34.00;37.30